sensor_id;sensor_type;location;lat;lon;timestamp;P1;durP1;ratioP1;P2;durP2;ratioP2
66546;SDS011;53400;50.364;14.874;2024-01-10T00:00:30;54.58;;;24.98;;
66546;SDS011;53400;50.364;14.874;2024-01-10T00:03:16;54.20;;;25.33;;
66546;SDS011;53400;50.364;14.874;2024-01-10T00:05:42;62.33;;;27.25;;
66546;SDS011;53400;50.364;14.874;2024-01-10T00:08:09;78.80;;;32.58;;
66546;SDS011;53400;50.364;14.874;2024-01-10T00:10:37;60.13;;;27.80;;
66546;SDS011;53400;50.364;14.874;2024-01-10T00:13:04;67.57;;;30.52;;
66546;SDS011;53400;50.364;14.874;2024-01-10T00:15:30;55.97;;;25.75;;
66546;SDS011;53400;50.364;14.874;2024-01-10T00:17:57;47.30;;;21.40;;
66546;SDS011;53400;50.364;14.874;2024-01-10T00:20:26;60.90;;;27.67;;
66546;SDS011;53400;50.364;14.874;2024-01-10T00:22:52;56.13;;;24.88;;
66546;SDS011;53400;50.364;14.874;2024-01-10T00:25:18;58.45;;;27.73;;
66546;SDS011;53400;50.364;14.874;2024-01-10T00:27:45;50.45;;;23.30;;
66546;SDS011;53400;50.364;14.874;2024-01-10T00:30:12;60.78;;;28.10;;
66546;SDS011;53400;50.364;14.874;2024-01-10T00:32:38;71.00;;;28.63;;
66546;SDS011;53400;50.364;14.874;2024-01-10T00:35:04;62.97;;;28.67;;
66546;SDS011;53400;50.364;14.874;2024-01-10T00:37:30;55.10;;;25.25;;
66546;SDS011;53400;50.364;14.874;2024-01-10T00:39:59;57.70;;;26.45;;
66546;SDS011;53400;50.364;14.874;2024-01-10T00:42:26;62.42;;;30.17;;
66546;SDS011;53400;50.364;14.874;2024-01-10T00:44:54;54.17;;;27.00;;
66546;SDS011;53400;50.364;14.874;2024-01-10T00:47:19;64.38;;;27.58;;
66546;SDS011;53400;50.364;14.874;2024-01-10T00:49:46;63.92;;;28.80;;
66546;SDS011;53400;50.364;14.874;2024-01-10T00:52:14;53.45;;;26.17;;
66546;SDS011;53400;50.364;14.874;2024-01-10T00:54:42;55.80;;;30.23;;
66546;SDS011;53400;50.364;14.874;2024-01-10T00:57:09;74.10;;;32.47;;
66546;SDS011;53400;50.364;14.874;2024-01-10T00:59:36;62.30;;;31.23;;
66546;SDS011;53400;50.364;14.874;2024-01-10T01:02:07;74.93;;;31.45;;
66546;SDS011;53400;50.364;14.874;2024-01-10T01:04:39;57.38;;;28.17;;
66546;SDS011;53400;50.364;14.874;2024-01-10T01:07:05;63.30;;;28.63;;
66546;SDS011;53400;50.364;14.874;2024-01-10T01:09:32;54.80;;;26.63;;
66546;SDS011;53400;50.364;14.874;2024-01-10T01:11:59;49.33;;;25.35;;
66546;SDS011;53400;50.364;14.874;2024-01-10T01:14:29;52.92;;;26.70;;
66546;SDS011;53400;50.364;14.874;2024-01-10T01:16:54;62.83;;;27.70;;
66546;SDS011;53400;50.364;14.874;2024-01-10T01:19:22;66.22;;;28.88;;
66546;SDS011;53400;50.364;14.874;2024-01-10T01:21:53;55.50;;;27.75;;
66546;SDS011;53400;50.364;14.874;2024-01-10T01:24:26;56.38;;;25.85;;
66546;SDS011;53400;50.364;14.874;2024-01-10T01:26:52;83.10;;;29.05;;
66546;SDS011;53400;50.364;14.874;2024-01-10T01:29:28;63.67;;;26.23;;
66546;SDS011;53400;50.364;14.874;2024-01-10T01:32:08;62.35;;;29.10;;
66546;SDS011;53400;50.364;14.874;2024-01-10T01:34:39;64.15;;;25.85;;
66546;SDS011;53400;50.364;14.874;2024-01-10T01:37:05;60.22;;;26.80;;
66546;SDS011;53400;50.364;14.874;2024-01-10T01:39:31;57.15;;;24.48;;
66546;SDS011;53400;50.364;14.874;2024-01-10T01:41:58;53.42;;;25.33;;
66546;SDS011;53400;50.364;14.874;2024-01-10T01:44:25;56.05;;;23.83;;
66546;SDS011;53400;50.364;14.874;2024-01-10T01:46:50;57.95;;;27.25;;
66546;SDS011;53400;50.364;14.874;2024-01-10T01:49:17;55.00;;;25.52;;
66546;SDS011;53400;50.364;14.874;2024-01-10T01:51:45;58.03;;;25.90;;
66546;SDS011;53400;50.364;14.874;2024-01-10T01:54:12;80.60;;;31.20;;
66546;SDS011;53400;50.364;14.874;2024-01-10T01:56:40;58.47;;;26.77;;
66546;SDS011;53400;50.364;14.874;2024-01-10T01:59:10;59.78;;;27.40;;
66546;SDS011;53400;50.364;14.874;2024-01-10T02:01:36;54.40;;;24.13;;
66546;SDS011;53400;50.364;14.874;2024-01-10T02:04:05;55.95;;;24.98;;
66546;SDS011;53400;50.364;14.874;2024-01-10T02:06:35;68.55;;;28.80;;
66546;SDS011;53400;50.364;14.874;2024-01-10T02:09:02;62.45;;;26.55;;
66546;SDS011;53400;50.364;14.874;2024-01-10T02:11:29;60.65;;;26.27;;
66546;SDS011;53400;50.364;14.874;2024-01-10T02:13:58;61.05;;;26.95;;
66546;SDS011;53400;50.364;14.874;2024-01-10T02:16:27;61.53;;;28.42;;
66546;SDS011;53400;50.364;14.874;2024-01-10T02:18:53;57.38;;;25.50;;
66546;SDS011;53400;50.364;14.874;2024-01-10T02:21:20;66.32;;;27.77;;
66546;SDS011;53400;50.364;14.874;2024-01-10T02:23:51;59.80;;;25.42;;
66546;SDS011;53400;50.364;14.874;2024-01-10T02:26:28;56.55;;;25.08;;
66546;SDS011;53400;50.364;14.874;2024-01-10T02:28:54;49.95;;;22.73;;
66546;SDS011;53400;50.364;14.874;2024-01-10T02:31:20;61.17;;;27.95;;
66546;SDS011;53400;50.364;14.874;2024-01-10T02:33:46;54.85;;;26.20;;
66546;SDS011;53400;50.364;14.874;2024-01-10T02:36:12;59.70;;;28.90;;
66546;SDS011;53400;50.364;14.874;2024-01-10T02:38:38;58.35;;;27.27;;
66546;SDS011;53400;50.364;14.874;2024-01-10T02:41:04;69.25;;;29.30;;
66546;SDS011;53400;50.364;14.874;2024-01-10T02:43:32;63.97;;;28.50;;
66546;SDS011;53400;50.364;14.874;2024-01-10T02:45:58;65.00;;;24.92;;
66546;SDS011;53400;50.364;14.874;2024-01-10T02:48:26;67.03;;;26.67;;
66546;SDS011;53400;50.364;14.874;2024-01-10T02:50:52;59.05;;;28.15;;
66546;SDS011;53400;50.364;14.874;2024-01-10T02:53:20;71.07;;;27.65;;
66546;SDS011;53400;50.364;14.874;2024-01-10T02:55:46;67.55;;;26.27;;
66546;SDS011;53400;50.364;14.874;2024-01-10T02:58:12;53.47;;;24.65;;
66546;SDS011;53400;50.364;14.874;2024-01-10T03:00:40;60.55;;;26.88;;
66546;SDS011;53400;50.364;14.874;2024-01-10T03:03:06;59.03;;;27.65;;
66546;SDS011;53400;50.364;14.874;2024-01-10T03:05:31;56.90;;;28.80;;
66546;SDS011;53400;50.364;14.874;2024-01-10T03:08:02;53.58;;;23.42;;
66546;SDS011;53400;50.364;14.874;2024-01-10T03:10:32;56.92;;;25.70;;
66546;SDS011;53400;50.364;14.874;2024-01-10T03:12:58;49.65;;;23.33;;
66546;SDS011;53400;50.364;14.874;2024-01-10T03:15:24;54.17;;;24.23;;
66546;SDS011;53400;50.364;14.874;2024-01-10T03:18:02;48.08;;;22.10;;
66546;SDS011;53400;50.364;14.874;2024-01-10T03:20:34;50.78;;;23.35;;
66546;SDS011;53400;50.364;14.874;2024-01-10T03:23:06;51.80;;;22.33;;
66546;SDS011;53400;50.364;14.874;2024-01-10T03:25:32;52.03;;;23.67;;
66546;SDS011;53400;50.364;14.874;2024-01-10T03:28:00;46.63;;;21.00;;
66546;SDS011;53400;50.364;14.874;2024-01-10T03:30:34;64.10;;;25.40;;
66546;SDS011;53400;50.364;14.874;2024-01-10T03:33:02;60.13;;;26.52;;
66546;SDS011;53400;50.364;14.874;2024-01-10T03:35:28;50.22;;;26.52;;
66546;SDS011;53400;50.364;14.874;2024-01-10T03:38:07;55.58;;;27.60;;
66546;SDS011;53400;50.364;14.874;2024-01-10T03:40:34;50.45;;;23.38;;
66546;SDS011;53400;50.364;14.874;2024-01-10T03:43:00;68.53;;;27.85;;
66546;SDS011;53400;50.364;14.874;2024-01-10T03:45:28;57.78;;;27.88;;
66546;SDS011;53400;50.364;14.874;2024-01-10T03:48:06;58.10;;;25.10;;
66546;SDS011;53400;50.364;14.874;2024-01-10T03:50:34;52.28;;;23.63;;
66546;SDS011;53400;50.364;14.874;2024-01-10T03:53:00;53.97;;;25.58;;
66546;SDS011;53400;50.364;14.874;2024-01-10T03:55:27;62.67;;;29.40;;
66546;SDS011;53400;50.364;14.874;2024-01-10T03:57:54;59.63;;;26.42;;
66546;SDS011;53400;50.364;14.874;2024-01-10T04:00:27;57.40;;;28.73;;
66546;SDS011;53400;50.364;14.874;2024-01-10T04:02:53;70.05;;;29.05;;
66546;SDS011;53400;50.364;14.874;2024-01-10T04:05:21;56.35;;;26.00;;
66546;SDS011;53400;50.364;14.874;2024-01-10T04:07:48;72.13;;;29.27;;
66546;SDS011;53400;50.364;14.874;2024-01-10T04:10:23;103.88;;;38.13;;
66546;SDS011;53400;50.364;14.874;2024-01-10T04:12:56;136.02;;;46.38;;
66546;SDS011;53400;50.364;14.874;2024-01-10T04:15:22;88.72;;;35.45;;
66546;SDS011;53400;50.364;14.874;2024-01-10T04:18:01;90.18;;;33.47;;
66546;SDS011;53400;50.364;14.874;2024-01-10T04:20:49;65.18;;;29.65;;
66546;SDS011;53400;50.364;14.874;2024-01-10T04:23:15;52.80;;;25.70;;
66546;SDS011;53400;50.364;14.874;2024-01-10T04:25:41;47.72;;;26.63;;
66546;SDS011;53400;50.364;14.874;2024-01-10T04:28:07;55.22;;;25.42;;
66546;SDS011;53400;50.364;14.874;2024-01-10T04:30:33;54.85;;;24.63;;
66546;SDS011;53400;50.364;14.874;2024-01-10T04:33:00;50.15;;;22.60;;
66546;SDS011;53400;50.364;14.874;2024-01-10T04:35:30;51.38;;;22.45;;
66546;SDS011;53400;50.364;14.874;2024-01-10T04:38:03;56.42;;;23.92;;
66546;SDS011;53400;50.364;14.874;2024-01-10T04:40:36;58.05;;;25.90;;
66546;SDS011;53400;50.364;14.874;2024-01-10T04:43:02;56.55;;;27.38;;
66546;SDS011;53400;50.364;14.874;2024-01-10T04:45:29;57.53;;;25.67;;
66546;SDS011;53400;50.364;14.874;2024-01-10T04:48:00;59.92;;;26.73;;
66546;SDS011;53400;50.364;14.874;2024-01-10T04:50:29;56.22;;;24.38;;
66546;SDS011;53400;50.364;14.874;2024-01-10T04:52:56;54.00;;;28.58;;
66546;SDS011;53400;50.364;14.874;2024-01-10T04:55:25;54.33;;;25.02;;
66546;SDS011;53400;50.364;14.874;2024-01-10T04:57:56;55.42;;;25.45;;
66546;SDS011;53400;50.364;14.874;2024-01-10T05:00:35;47.05;;;24.38;;
66546;SDS011;53400;50.364;14.874;2024-01-10T05:03:03;48.25;;;23.80;;
66546;SDS011;53400;50.364;14.874;2024-01-10T05:05:29;58.88;;;23.83;;
66546;SDS011;53400;50.364;14.874;2024-01-10T05:07:57;45.95;;;22.70;;
66546;SDS011;53400;50.364;14.874;2024-01-10T05:10:25;53.33;;;22.02;;
66546;SDS011;53400;50.364;14.874;2024-01-10T05:12:51;46.92;;;22.75;;
66546;SDS011;53400;50.364;14.874;2024-01-10T05:15:17;42.92;;;20.42;;
66546;SDS011;53400;50.364;14.874;2024-01-10T05:17:43;54.05;;;20.90;;
66546;SDS011;53400;50.364;14.874;2024-01-10T05:20:15;51.00;;;20.20;;
66546;SDS011;53400;50.364;14.874;2024-01-10T05:22:44;53.55;;;21.20;;
66546;SDS011;53400;50.364;14.874;2024-01-10T05:25:13;55.13;;;25.45;;
66546;SDS011;53400;50.364;14.874;2024-01-10T05:27:40;54.08;;;26.30;;
66546;SDS011;53400;50.364;14.874;2024-01-10T05:30:12;55.92;;;23.45;;
66546;SDS011;53400;50.364;14.874;2024-01-10T05:32:39;51.83;;;24.35;;
66546;SDS011;53400;50.364;14.874;2024-01-10T05:35:06;46.40;;;22.92;;
66546;SDS011;53400;50.364;14.874;2024-01-10T05:37:33;49.58;;;22.00;;
66546;SDS011;53400;50.364;14.874;2024-01-10T05:40:02;46.35;;;21.52;;
66546;SDS011;53400;50.364;14.874;2024-01-10T05:42:35;59.20;;;25.63;;
66546;SDS011;53400;50.364;14.874;2024-01-10T05:45:05;48.15;;;23.75;;
66546;SDS011;53400;50.364;14.874;2024-01-10T05:47:35;37.05;;;19.95;;
66546;SDS011;53400;50.364;14.874;2024-01-10T05:50:03;47.20;;;22.45;;
66546;SDS011;53400;50.364;14.874;2024-01-10T05:52:33;56.47;;;26.95;;
66546;SDS011;53400;50.364;14.874;2024-01-10T05:54:59;49.58;;;24.90;;
66546;SDS011;53400;50.364;14.874;2024-01-10T05:57:27;45.08;;;23.52;;
66546;SDS011;53400;50.364;14.874;2024-01-10T05:59:57;47.88;;;24.23;;
66546;SDS011;53400;50.364;14.874;2024-01-10T06:02:28;55.08;;;24.80;;
66546;SDS011;53400;50.364;14.874;2024-01-10T06:04:54;50.97;;;23.67;;
66546;SDS011;53400;50.364;14.874;2024-01-10T06:07:21;50.67;;;22.95;;
66546;SDS011;53400;50.364;14.874;2024-01-10T06:09:47;47.17;;;22.77;;
66546;SDS011;53400;50.364;14.874;2024-01-10T06:12:13;54.95;;;23.25;;
66546;SDS011;53400;50.364;14.874;2024-01-10T06:14:40;45.00;;;22.83;;
66546;SDS011;53400;50.364;14.874;2024-01-10T06:17:07;53.35;;;23.13;;
66546;SDS011;53400;50.364;14.874;2024-01-10T06:19:34;56.15;;;25.75;;
66546;SDS011;53400;50.364;14.874;2024-01-10T06:22:01;46.65;;;24.83;;
66546;SDS011;53400;50.364;14.874;2024-01-10T06:24:34;57.15;;;24.38;;
66546;SDS011;53400;50.364;14.874;2024-01-10T06:27:01;52.42;;;24.27;;
66546;SDS011;53400;50.364;14.874;2024-01-10T06:29:27;50.88;;;21.67;;
66546;SDS011;53400;50.364;14.874;2024-01-10T06:31:59;53.53;;;23.27;;
66546;SDS011;53400;50.364;14.874;2024-01-10T06:34:27;50.72;;;23.20;;
66546;SDS011;53400;50.364;14.874;2024-01-10T06:36:55;53.72;;;23.83;;
66546;SDS011;53400;50.364;14.874;2024-01-10T06:39:22;62.35;;;30.05;;
66546;SDS011;53400;50.364;14.874;2024-01-10T06:41:54;57.00;;;25.60;;
66546;SDS011;53400;50.364;14.874;2024-01-10T06:44:29;45.55;;;21.45;;
66546;SDS011;53400;50.364;14.874;2024-01-10T06:46:55;47.72;;;22.17;;
66546;SDS011;53400;50.364;14.874;2024-01-10T06:49:21;55.00;;;23.42;;
66546;SDS011;53400;50.364;14.874;2024-01-10T06:51:58;57.67;;;23.70;;
66546;SDS011;53400;50.364;14.874;2024-01-10T06:54:26;48.45;;;22.40;;
66546;SDS011;53400;50.364;14.874;2024-01-10T06:56:52;47.67;;;22.48;;
66546;SDS011;53400;50.364;14.874;2024-01-10T06:59:18;44.80;;;22.55;;
66546;SDS011;53400;50.364;14.874;2024-01-10T07:01:45;55.40;;;25.15;;
66546;SDS011;53400;50.364;14.874;2024-01-10T07:04:36;53.75;;;24.45;;
66546;SDS011;53400;50.364;14.874;2024-01-10T07:07:04;51.35;;;24.58;;
66546;SDS011;53400;50.364;14.874;2024-01-10T07:09:31;44.78;;;22.40;;
66546;SDS011;53400;50.364;14.874;2024-01-10T07:11:59;47.55;;;22.30;;
66546;SDS011;53400;50.364;14.874;2024-01-10T07:14:31;46.28;;;22.27;;
66546;SDS011;53400;50.364;14.874;2024-01-10T07:17:01;44.72;;;22.05;;
66546;SDS011;53400;50.364;14.874;2024-01-10T07:19:27;41.40;;;22.73;;
66546;SDS011;53400;50.364;14.874;2024-01-10T07:21:57;45.25;;;19.65;;
66546;SDS011;53400;50.364;14.874;2024-01-10T07:24:34;45.75;;;21.63;;
66546;SDS011;53400;50.364;14.874;2024-01-10T07:27:01;47.97;;;23.42;;
66546;SDS011;53400;50.364;14.874;2024-01-10T07:29:27;46.17;;;20.50;;
66546;SDS011;53400;50.364;14.874;2024-01-10T07:31:54;38.92;;;19.63;;
66546;SDS011;53400;50.364;14.874;2024-01-10T07:34:36;40.85;;;19.17;;
66546;SDS011;53400;50.364;14.874;2024-01-10T07:37:03;45.88;;;21.50;;
66546;SDS011;53400;50.364;14.874;2024-01-10T07:39:28;39.10;;;19.42;;
66546;SDS011;53400;50.364;14.874;2024-01-10T07:42:00;42.78;;;20.27;;
66546;SDS011;53400;50.364;14.874;2024-01-10T07:44:27;41.28;;;20.88;;
66546;SDS011;53400;50.364;14.874;2024-01-10T07:46:54;43.85;;;19.58;;
66546;SDS011;53400;50.364;14.874;2024-01-10T07:49:20;37.53;;;21.30;;
66546;SDS011;53400;50.364;14.874;2024-01-10T07:51:47;42.15;;;19.55;;
66546;SDS011;53400;50.364;14.874;2024-01-10T07:54:13;35.55;;;17.70;;
66546;SDS011;53400;50.364;14.874;2024-01-10T07:56:39;39.70;;;19.55;;
66546;SDS011;53400;50.364;14.874;2024-01-10T07:59:06;40.50;;;20.25;;
66546;SDS011;53400;50.364;14.874;2024-01-10T08:01:33;49.97;;;21.48;;
66546;SDS011;53400;50.364;14.874;2024-01-10T08:04:00;40.30;;;17.88;;
66546;SDS011;53400;50.364;14.874;2024-01-10T08:06:33;41.67;;;21.05;;
66546;SDS011;53400;50.364;14.874;2024-01-10T08:09:00;42.58;;;19.95;;
66546;SDS011;53400;50.364;14.874;2024-01-10T08:11:29;43.60;;;19.08;;
66546;SDS011;53400;50.364;14.874;2024-01-10T08:14:03;30.60;;;16.67;;
66546;SDS011;53400;50.364;14.874;2024-01-10T08:16:32;54.55;;;22.35;;
66546;SDS011;53400;50.364;14.874;2024-01-10T08:18:58;68.13;;;26.73;;
66546;SDS011;53400;50.364;14.874;2024-01-10T08:21:27;71.53;;;28.25;;
66546;SDS011;53400;50.364;14.874;2024-01-10T08:23:58;77.38;;;30.25;;
66546;SDS011;53400;50.364;14.874;2024-01-10T08:26:33;46.53;;;22.77;;
66546;SDS011;53400;50.364;14.874;2024-01-10T08:28:59;43.83;;;21.23;;
66546;SDS011;53400;50.364;14.874;2024-01-10T08:31:26;49.17;;;21.20;;
66546;SDS011;53400;50.364;14.874;2024-01-10T08:36:35;42.95;;;17.33;;
66546;SDS011;53400;50.364;14.874;2024-01-10T08:39:00;46.20;;;24.00;;
66546;SDS011;53400;50.364;14.874;2024-01-10T08:41:29;54.22;;;23.35;;
66546;SDS011;53400;50.364;14.874;2024-01-10T08:43:59;44.97;;;19.98;;
66546;SDS011;53400;50.364;14.874;2024-01-10T08:46:30;46.55;;;22.10;;
66546;SDS011;53400;50.364;14.874;2024-01-10T08:48:56;49.22;;;23.38;;
66546;SDS011;53400;50.364;14.874;2024-01-10T08:51:24;53.22;;;24.27;;
66546;SDS011;53400;50.364;14.874;2024-01-10T08:56:44;45.25;;;22.70;;
66546;SDS011;53400;50.364;14.874;2024-01-10T08:59:10;33.40;;;14.90;;
66546;SDS011;53400;50.364;14.874;2024-01-10T09:01:39;23.05;;;11.13;;
66546;SDS011;53400;50.364;14.874;2024-01-10T09:04:07;30.65;;;13.75;;
66546;SDS011;53400;50.364;14.874;2024-01-10T09:06:35;27.75;;;12.77;;
66546;SDS011;53400;50.364;14.874;2024-01-10T09:09:03;32.58;;;15.27;;
66546;SDS011;53400;50.364;14.874;2024-01-10T09:11:30;30.52;;;15.50;;
66546;SDS011;53400;50.364;14.874;2024-01-10T09:14:05;30.27;;;13.93;;
66546;SDS011;53400;50.364;14.874;2024-01-10T09:16:37;30.88;;;15.45;;
66546;SDS011;53400;50.364;14.874;2024-01-10T09:19:04;23.35;;;11.82;;
66546;SDS011;53400;50.364;14.874;2024-01-10T09:21:34;19.35;;;10.85;;
66546;SDS011;53400;50.364;14.874;2024-01-10T09:24:03;27.23;;;13.73;;
66546;SDS011;53400;50.364;14.874;2024-01-10T09:26:36;23.55;;;11.52;;
66546;SDS011;53400;50.364;14.874;2024-01-10T09:29:03;27.08;;;13.02;;
66546;SDS011;53400;50.364;14.874;2024-01-10T09:31:29;26.80;;;13.02;;
66546;SDS011;53400;50.364;14.874;2024-01-10T09:33:58;20.90;;;9.88;;
66546;SDS011;53400;50.364;14.874;2024-01-10T09:38:55;22.98;;;10.27;;
66546;SDS011;53400;50.364;14.874;2024-01-10T09:41:21;12.90;;;6.38;;
66546;SDS011;53400;50.364;14.874;2024-01-10T09:43:59;20.02;;;9.93;;
66546;SDS011;53400;50.364;14.874;2024-01-10T09:46:26;22.33;;;9.48;;
66546;SDS011;53400;50.364;14.874;2024-01-10T09:48:55;13.75;;;6.80;;
66546;SDS011;53400;50.364;14.874;2024-01-10T09:51:22;20.23;;;8.05;;
66546;SDS011;53400;50.364;14.874;2024-01-10T09:56:40;15.52;;;6.85;;
66546;SDS011;53400;50.364;14.874;2024-01-10T09:59:07;17.77;;;7.22;;
66546;SDS011;53400;50.364;14.874;2024-01-10T10:01:36;16.50;;;7.57;;
66546;SDS011;53400;50.364;14.874;2024-01-10T10:04:06;16.70;;;7.28;;
66546;SDS011;53400;50.364;14.874;2024-01-10T10:06:39;17.35;;;7.32;;
66546;SDS011;53400;50.364;14.874;2024-01-10T10:09:06;16.08;;;7.25;;
66546;SDS011;53400;50.364;14.874;2024-01-10T10:11:35;13.25;;;6.43;;
66546;SDS011;53400;50.364;14.874;2024-01-10T10:16:44;11.23;;;5.15;;
66546;SDS011;53400;50.364;14.874;2024-01-10T10:19:13;16.88;;;6.72;;
66546;SDS011;53400;50.364;14.874;2024-01-10T10:21:57;10.68;;;4.88;;
66546;SDS011;53400;50.364;14.874;2024-01-10T10:24:37;11.80;;;4.90;;
66546;SDS011;53400;50.364;14.874;2024-01-10T10:27:08;12.13;;;4.90;;
66546;SDS011;53400;50.364;14.874;2024-01-10T10:29:36;12.30;;;6.45;;
66546;SDS011;53400;50.364;14.874;2024-01-10T10:32:08;11.02;;;4.65;;
66546;SDS011;53400;50.364;14.874;2024-01-10T10:34:34;12.07;;;4.85;;
66546;SDS011;53400;50.364;14.874;2024-01-10T10:37:01;11.77;;;4.55;;
66546;SDS011;53400;50.364;14.874;2024-01-10T10:39:28;12.00;;;4.75;;
66546;SDS011;53400;50.364;14.874;2024-01-10T10:41:56;10.07;;;4.43;;
66546;SDS011;53400;50.364;14.874;2024-01-10T10:44:34;11.30;;;4.90;;
66546;SDS011;53400;50.364;14.874;2024-01-10T10:47:05;12.63;;;5.70;;
66546;SDS011;53400;50.364;14.874;2024-01-10T10:49:36;10.68;;;5.10;;
66546;SDS011;53400;50.364;14.874;2024-01-10T10:52:22;11.65;;;5.22;;
66546;SDS011;53400;50.364;14.874;2024-01-10T10:54:50;8.68;;;4.18;;
66546;SDS011;53400;50.364;14.874;2024-01-10T10:57:20;12.57;;;4.53;;
66546;SDS011;53400;50.364;14.874;2024-01-10T10:59:58;9.80;;;4.80;;
66546;SDS011;53400;50.364;14.874;2024-01-10T11:02:31;10.85;;;5.15;;
66546;SDS011;53400;50.364;14.874;2024-01-10T11:04:57;14.20;;;4.43;;
66546;SDS011;53400;50.364;14.874;2024-01-10T11:07:25;12.40;;;5.10;;
66546;SDS011;53400;50.364;14.874;2024-01-10T11:09:59;9.07;;;4.50;;
66546;SDS011;53400;50.364;14.874;2024-01-10T11:12:43;13.30;;;5.20;;
66546;SDS011;53400;50.364;14.874;2024-01-10T11:18:56;12.68;;;5.60;;
66546;SDS011;53400;50.364;14.874;2024-01-10T11:21:37;12.98;;;4.50;;
66546;SDS011;53400;50.364;14.874;2024-01-10T11:24:36;10.25;;;4.85;;
66546;SDS011;53400;50.364;14.874;2024-01-10T11:27:10;12.07;;;5.20;;
66546;SDS011;53400;50.364;14.874;2024-01-10T11:29:38;11.05;;;4.68;;
66546;SDS011;53400;50.364;14.874;2024-01-10T11:32:12;12.25;;;4.70;;
66546;SDS011;53400;50.364;14.874;2024-01-10T11:34:43;12.02;;;4.85;;
66546;SDS011;53400;50.364;14.874;2024-01-10T11:37:15;12.00;;;5.70;;
66546;SDS011;53400;50.364;14.874;2024-01-10T11:39:41;10.65;;;5.32;;
66546;SDS011;53400;50.364;14.874;2024-01-10T11:42:21;10.90;;;4.80;;
66546;SDS011;53400;50.364;14.874;2024-01-10T11:44:48;11.40;;;4.63;;
66546;SDS011;53400;50.364;14.874;2024-01-10T11:47:15;12.02;;;5.45;;
66546;SDS011;53400;50.364;14.874;2024-01-10T11:49:58;12.13;;;5.05;;
66546;SDS011;53400;50.364;14.874;2024-01-10T11:52:31;11.95;;;5.30;;
66546;SDS011;53400;50.364;14.874;2024-01-10T11:54:59;11.80;;;4.75;;
66546;SDS011;53400;50.364;14.874;2024-01-10T11:57:26;9.73;;;4.78;;
66546;SDS011;53400;50.364;14.874;2024-01-10T12:00:00;10.65;;;5.38;;
66546;SDS011;53400;50.364;14.874;2024-01-10T12:02:35;11.70;;;5.22;;
66546;SDS011;53400;50.364;14.874;2024-01-10T12:05:06;10.98;;;4.80;;
66546;SDS011;53400;50.364;14.874;2024-01-10T12:07:33;12.10;;;5.35;;
66546;SDS011;53400;50.364;14.874;2024-01-10T12:35:44;9.98;;;4.45;;
66546;SDS011;53400;50.364;14.874;2024-01-10T12:38:29;10.90;;;4.53;;
66546;SDS011;53400;50.364;14.874;2024-01-10T12:40:57;9.63;;;4.50;;
66546;SDS011;53400;50.364;14.874;2024-01-10T12:43:23;10.25;;;4.35;;
66546;SDS011;53400;50.364;14.874;2024-01-10T12:45:55;14.70;;;5.38;;
66546;SDS011;53400;50.364;14.874;2024-01-10T12:48:31;8.50;;;3.92;;
66546;SDS011;53400;50.364;14.874;2024-01-10T12:51:00;11.07;;;5.00;;
66546;SDS011;53400;50.364;14.874;2024-01-10T12:53:26;9.57;;;4.63;;
66546;SDS011;53400;50.364;14.874;2024-01-10T12:55:58;12.02;;;4.68;;
66546;SDS011;53400;50.364;14.874;2024-01-10T12:58:32;12.00;;;4.22;;
66546;SDS011;53400;50.364;14.874;2024-01-10T13:00:59;9.77;;;4.40;;
66546;SDS011;53400;50.364;14.874;2024-01-10T13:03:24;10.70;;;5.38;;
66546;SDS011;53400;50.364;14.874;2024-01-10T13:08:34;9.38;;;4.18;;
66546;SDS011;53400;50.364;14.874;2024-01-10T13:11:00;10.25;;;4.75;;
66546;SDS011;53400;50.364;14.874;2024-01-10T13:13:27;10.35;;;4.88;;
66546;SDS011;53400;50.364;14.874;2024-01-10T13:15:56;8.60;;;3.80;;
66546;SDS011;53400;50.364;14.874;2024-01-10T13:18:25;10.77;;;4.33;;
66546;SDS011;53400;50.364;14.874;2024-01-10T13:20:54;11.38;;;4.88;;
66546;SDS011;53400;50.364;14.874;2024-01-10T13:23:21;8.88;;;4.38;;
66546;SDS011;53400;50.364;14.874;2024-01-10T13:25:48;9.90;;;4.68;;
66546;SDS011;53400;50.364;14.874;2024-01-10T13:28:15;9.63;;;4.07;;
66546;SDS011;53400;50.364;14.874;2024-01-10T13:30:41;9.55;;;4.80;;
66546;SDS011;53400;50.364;14.874;2024-01-10T13:33:08;9.57;;;4.65;;
66546;SDS011;53400;50.364;14.874;2024-01-10T13:35:37;9.55;;;4.72;;
66546;SDS011;53400;50.364;14.874;2024-01-10T13:38:04;9.77;;;4.50;;
66546;SDS011;53400;50.364;14.874;2024-01-10T13:40:34;10.15;;;4.78;;
66546;SDS011;53400;50.364;14.874;2024-01-10T13:42:59;9.68;;;4.55;;
66546;SDS011;53400;50.364;14.874;2024-01-10T13:45:28;9.52;;;4.57;;
66546;SDS011;53400;50.364;14.874;2024-01-10T13:48:04;9.43;;;4.90;;
66546;SDS011;53400;50.364;14.874;2024-01-10T13:50:34;10.55;;;5.10;;
66546;SDS011;53400;50.364;14.874;2024-01-10T13:53:01;10.70;;;4.53;;
66546;SDS011;53400;50.364;14.874;2024-01-10T13:55:29;10.65;;;5.03;;
66546;SDS011;53400;50.364;14.874;2024-01-10T13:57:58;10.73;;;5.13;;
66546;SDS011;53400;50.364;14.874;2024-01-10T14:00:25;9.98;;;4.80;;
66546;SDS011;53400;50.364;14.874;2024-01-10T14:02:52;11.60;;;4.82;;
66546;SDS011;53400;50.364;14.874;2024-01-10T14:05:25;11.82;;;5.78;;
66546;SDS011;53400;50.364;14.874;2024-01-10T14:07:56;9.95;;;5.07;;
66546;SDS011;53400;50.364;14.874;2024-01-10T14:10:27;10.43;;;5.20;;
66546;SDS011;53400;50.364;14.874;2024-01-10T14:12:59;11.50;;;5.15;;
66546;SDS011;53400;50.364;14.874;2024-01-10T14:15:26;9.85;;;4.95;;
66546;SDS011;53400;50.364;14.874;2024-01-10T14:18:04;11.00;;;5.43;;
66546;SDS011;53400;50.364;14.874;2024-01-10T14:20:31;11.13;;;5.40;;
66546;SDS011;53400;50.364;14.874;2024-01-10T14:22:58;12.77;;;5.20;;
66546;SDS011;53400;50.364;14.874;2024-01-10T14:25:25;10.93;;;5.57;;
66546;SDS011;53400;50.364;14.874;2024-01-10T14:28:03;10.90;;;5.43;;
66546;SDS011;53400;50.364;14.874;2024-01-10T14:30:32;11.50;;;5.45;;
66546;SDS011;53400;50.364;14.874;2024-01-10T14:32:58;12.98;;;5.43;;
66546;SDS011;53400;50.364;14.874;2024-01-10T14:35:25;12.45;;;5.40;;
66546;SDS011;53400;50.364;14.874;2024-01-10T14:37:53;12.40;;;5.22;;
66546;SDS011;53400;50.364;14.874;2024-01-10T14:40:30;12.82;;;5.60;;
66546;SDS011;53400;50.364;14.874;2024-01-10T14:42:56;14.63;;;6.90;;
66546;SDS011;53400;50.364;14.874;2024-01-10T14:45:24;11.85;;;5.93;;
66546;SDS011;53400;50.364;14.874;2024-01-10T14:47:50;12.60;;;5.85;;
66546;SDS011;53400;50.364;14.874;2024-01-10T14:50:20;11.95;;;5.88;;
66546;SDS011;53400;50.364;14.874;2024-01-10T14:52:47;12.05;;;6.13;;
66546;SDS011;53400;50.364;14.874;2024-01-10T14:55:14;13.27;;;6.57;;
66546;SDS011;53400;50.364;14.874;2024-01-10T14:57:40;12.70;;;6.18;;
66546;SDS011;53400;50.364;14.874;2024-01-10T15:00:07;13.85;;;6.22;;
66546;SDS011;53400;50.364;14.874;2024-01-10T15:02:37;12.85;;;6.35;;
66546;SDS011;53400;50.364;14.874;2024-01-10T15:05:05;12.27;;;6.53;;
66546;SDS011;53400;50.364;14.874;2024-01-10T15:07:34;13.75;;;5.97;;
66546;SDS011;53400;50.364;14.874;2024-01-10T15:10:04;17.70;;;9.00;;